< Typhoon 200411 2004 Season Typhoon 200413 >
Typhoon 200412 (MERANTI)
General InformationTrack Information on Google MapsDetailed Wind InformationAccess Analytics MapList of All Images || NewsDisaster Info.WeblogTrackbackTyphoon FrontResourceGoogle EarthGE AnimationAtom FeedGeoJSON
Detalied Best Track (Time Zone = UTC)
Year Month Day Hour Lat. Long. Pressure (hPa) Wind (kt) Class Image Chart
2004 8 3 00 16.5 166.1 1004 0 2 Image Chart
2004 8 3 06 17.7 166.3 1004 0 2 Image Chart
2004 8 3 12 18.6 166.2 1004 0 2 Image Chart
2004 8 3 18 19.6 166.0 1002 0 2 Image Chart
2004 8 4 00 20.9 165.6 1002 0 2 Image Chart
2004 8 4 06 22.5 165.3 1000 0 2 Image Chart
2004 8 4 12 23.7 165.3 998 35 3 Image Chart
2004 8 4 18 24.5 165.4 996 40 3 Image Chart
2004 8 5 00 25.3 165.6 990 45 3 Image Chart
2004 8 5 06 26.3 166.1 980 55 4 Image Chart
2004 8 5 12 27.2 166.7 970 70 5 Image Chart
2004 8 5 18 28.0 167.3 960 75 5 Image Chart
2004 8 6 00 28.7 167.9 960 75 5 Image Chart
2004 8 6 06 29.5 168.7 960 75 5 Image Chart
2004 8 6 12 30.3 169.6 965 70 5 Image Chart
2004 8 6 18 31.2 170.1 975 65 5 Image Chart
2004 8 7 00 31.8 170.6 975 60 4 Image Chart
2004 8 7 06 32.6 171.5 980 55 4 Image Chart
2004 8 7 12 33.8 171.7 980 55 4 Image Chart
2004 8 7 18 34.9 171.4 985 50 4 Image Chart
2004 8 8 00 35.7 171.8 990 45 3 Image Chart
2004 8 8 06 36.9 171.6 990 45 3 Image Chart
2004 8 8 12 37.5 171.5 992 40 3 Image Chart
2004 8 8 18 37.9 172.0 994 40 3 Image Chart
2004 8 9 00 39.3 172.2 996 40 3 Image Chart
2004 8 9 06 39.6 172.4 998 0 6 Image Chart
2004 8 9 12 39.8 172.7 1002 0 6 Image Chart
2004 8 9 18 40.1 172.5 1002 0 6 Image Chart
2004 8 10 00 40.3 172.0 1004 0 6 Image Chart
2004 8 10 06 40.5 171.4 1004 0 6 Image Chart
2004 8 10 12 40.5 170.7 1004 0 6 Image Chart
2004 8 10 18 40.3 169.9 1004 0 6 Image Chart
2004 8 11 00 40.1 169.7 1000 0 6 Image Chart
2004 8 11 06 40.1 170.0 1000 0 6 Image Chart
2004 8 11 12 40.2 171.1 1000 0 6 Image Chart
2004 8 11 18 40.5 172.2 1000 0 6 Image Chart
2004 8 12 00 41.0 174.0 1000 0 6 Image Chart
2004 8 12 06 42.2 175.6 996 0 6 Image Chart
2004 8 12 12 43.5 177.4 1000 0 6 Image Chart
2004 8 12 18 44.9 179.4 998 0 6 Image Chart
2004 8 13 00 46.2 181.8 1002 0 6 Image Chart
Japan Meteorological Agency Best Track Data | Correction Date : 2006-01-18
< Typhoon 200411 2004 Season Typhoon 200413 >

Help